^^
WoodinvilleWX Historical Data
 
Daily Summary for September 22, 2018 Units:  English    Metric   Both
Daily Weekly Monthly Yearly Custom
  Current: High: Low: Average:
Temperature: 56.9 °F 58.9 °F 56.9 °F 57.8 °F
Dew Point: 54.9 °F 56.88 °F 54.9 °F 55.8 °F
Humidity: 93% 93% 91% 93%
Wind Speed: 0mph 5mph 0mph 0.2mph
Wind Gust: 5mph 8mph - -
WindCalm - - SE
Pressure: 29.85 in 29.86 in 29.83 in -
Precipitation: 0.02 in      
Historical Graphs
 
 
Tabular Data for September 22, 2018
Time Temperature Dew Point Pressure Wind Wind Speed Wind Gust Humidity Rainfall Rate (Hourly)
00:00 58.9 °F 56.88 °F 29.84 in Calm     93% 0.1 in
00:05 58.9 °F 56.88 °F 29.84 in Calm     93% 0.08 in
00:10 58.8 °F 56.78 °F 29.84 in Calm     93% 0.05 in
00:15 58.8 °F 56.78 °F 29.85 in Calm   1 mph 93% 0.03 in
00:20 58.8 °F 56.78 °F 29.84 in Calm   4 mph 93% 0.03 in
00:25 58.7 °F 56.69 °F 29.84 in Calm     93% 0.03 in
00:30 58.7 °F 56.69 °F 29.84 in Calm     93% 0.03 in
00:35 58.7 °F 56.69 °F 29.84 in SSE 2 mph 2 mph 93% 0.03 in
00:40 58.7 °F 56.69 °F 29.84 in Calm   2 mph 93% 0.02 in
00:45 58.7 °F 56.69 °F 29.84 in Calm   2 mph 93% 0.02 in
00:50 58.7 °F 56.69 °F 29.85 in Calm   2 mph 93% 0.01 in
00:55 58.7 °F 56.69 °F 29.85 in Calm     93% 0.01 in
01:00 58.7 °F 56.69 °F 29.85 in Calm     93% 0.01 in
01:05 58.7 °F 56.69 °F 29.85 in Calm     93% 0.01 in
01:10 58.6 °F 56.59 °F 29.85 in Calm   1 mph 93% 0.01 in
01:15 58.6 °F 56.59 °F 29.85 in Calm     93% 0.01 in
01:20 58.6 °F 56.59 °F 29.85 in Calm   2 mph 93% 0.01 in
01:25 58.6 °F 56.59 °F 29.85 in Calm   1 mph 93% 0 in
01:29 58.5 °F 56.49 °F 29.85 in Calm   1 mph 93% 0 in
01:30 58.5 °F 56.49 °F 29.85 in Calm   1 mph 93% 0 in
01:35 58.4 °F 56.39 °F 29.85 in Calm     93% 0 in
01:40 58.4 °F 56.39 °F 29.85 in Calm     93% 0 in
01:45 58.3 °F 56.29 °F 29.85 in Calm   1 mph 93% 0 in
01:50 58.2 °F 56.19 °F 29.86 in Calm     93% 0 in
01:55 58.2 °F 56.19 °F 29.86 in Calm     93% 0 in
02:00 58.1 °F 56.09 °F 29.86 in Calm     93% 0 in
02:05 58.1 °F 56.09 °F 29.86 in Calm     93% 0 in
02:10 58 °F 55.99 °F 29.86 in Calm     93% 0 in
02:14 58 °F 55.99 °F 29.86 in Calm     93% 0 in
02:15 58 °F 55.99 °F 29.86 in Calm     93% 0 in
02:20 58 °F 55.99 °F 29.86 in Calm     93% 0 in
02:25 58 °F 55.99 °F 29.85 in Calm   2 mph 93% 0 in
02:30 58 °F 55.99 °F 29.86 in Calm   2 mph 93% 0 in
02:35 58 °F 55.99 °F 29.86 in Calm     93% 0 in
02:40 58.1 °F 56.09 °F 29.86 in Calm     93% 0 in
02:45 58 °F 55.99 °F 29.86 in Calm     93% 0 in
02:49 58 °F 55.99 °F 29.86 in Calm   1 mph 93% 0 in
02:50 58 °F 55.99 °F 29.86 in Calm   1 mph 93% 0 in
02:55 58 °F 55.99 °F 29.86 in Calm     93% 0 in
02:59 58 °F 55.99 °F 29.85 in Calm     93% 0 in
03:00 58 °F 55.99 °F 29.85 in Calm     93% 0 in
03:05 58 °F 55.99 °F 29.85 in Calm   1 mph 93% 0 in
03:10 57.9 °F 55.89 °F 29.85 in Calm   2 mph 93% 0 in
03:15 57.9 °F 55.89 °F 29.85 in Calm   4 mph 93% 0 in
03:20 57.8 °F 55.79 °F 29.85 in Calm   2 mph 93% 0 in
03:25 57.8 °F 55.79 °F 29.85 in Calm     93% 0 in
03:30 57.8 °F 55.79 °F 29.85 in Calm   1 mph 93% 0 in
03:35 57.7 °F 55.69 °F 29.85 in Calm   4 mph 93% 0 in
03:40 57.6 °F 55.6 °F 29.84 in Calm     93% 0 in
03:45 57.6 °F 55.6 °F 29.85 in Calm   4 mph 93% 0 in
03:50 57.6 °F 55.6 °F 29.84 in Calm     93% 0 in
03:55 57.6 °F 55.6 °F 29.84 in Calm     93% 0 in
04:00 57.5 °F 55.5 °F 29.84 in Calm     93% 0 in
04:05 57.5 °F 55.5 °F 29.84 in Calm     93% 0 in
04:10 57.4 °F 55.4 °F 29.84 in Calm     93% 0 in
04:14 57.4 °F 55.4 °F 29.84 in Calm     93% 0 in
04:20 57.4 °F 55.4 °F 29.84 in Calm   1 mph 93% 0 in
04:25 57.4 °F 55.4 °F 29.84 in Calm     93% 0 in
04:30 57.4 °F 55.4 °F 29.84 in Calm   1 mph 93% 0 in
04:35 57.3 °F 55.3 °F 29.84 in Calm   2 mph 93% 0 in
04:40 57.4 °F 55.4 °F 29.84 in Calm   2 mph 93% 0 in
04:45 57.4 °F 55.4 °F 29.84 in Calm   2 mph 93% 0 in
04:50 57.4 °F 55.4 °F 29.83 in Calm   2 mph 93% 0 in
04:55 57.5 °F 55.5 °F 29.84 in Calm   2 mph 93% 0 in
05:00 57.6 °F 55.3 °F 29.84 in Calm   6 mph 92% 0.01 in
05:05 57.8 °F 55.5 °F 29.84 in Calm   4 mph 92% 0.01 in
05:10 57.7 °F 55.1 °F 29.84 in Calm   3 mph 91% 0.01 in
05:15 57.8 °F 55.19 °F 29.84 in Calm   5 mph 91% 0.01 in
05:20 57.7 °F 55.1 °F 29.83 in Calm   1 mph 91% 0.01 in
05:25 57.6 °F 55.3 °F 29.83 in SE 1 mph 8 mph 92% 0.01 in
05:30 57.4 °F 55.1 °F 29.84 in Calm   2 mph 92% 0.01 in
05:35 57.3 °F 55 °F 29.84 in SE 1 mph 5 mph 92% 0.01 in
05:40 57.3 °F 55 °F 29.84 in Calm   4 mph 92% 0.01 in
05:45 57.2 °F 54.9 °F 29.84 in ESE 5 mph 5 mph 92% 0.01 in
05:50 57.2 °F 54.9 °F 29.84 in Calm   5 mph 92% 0.01 in
05:55 57.3 °F 55 °F 29.84 in SSE 3 mph 6 mph 92% 0.01 in
06:00 57.3 °F 55 °F 29.84 in East 2 mph 6 mph 92% 0.01 in
06:05 57.4 °F 55.1 °F 29.84 in Calm   4 mph 92% 0 in
06:10 57.3 °F 55 °F 29.84 in Calm   4 mph 92% 0 in
06:15 57.3 °F 55 °F 29.84 in Calm   2 mph 92% 0 in
06:29 57.2 °F 54.9 °F 29.85 in Calm   1 mph 92% 0 in
06:34 57.3 °F 55 °F 29.85 in SE 1 mph 5 mph 92% 0 in
06:40 57.4 °F 55.1 °F 29.85 in Calm   6 mph 92% 0 in
06:45 57.4 °F 55.1 °F 29.85 in East 2 mph 8 mph 92% 0 in
06:50 57.3 °F 55 °F 29.85 in Calm   2 mph 92% 0 in
06:55 57.2 °F 54.9 °F 29.85 in Calm   4 mph 92% 0 in
07:00 57.1 °F 55.1 °F 29.85 in SE 1 mph 4 mph 93% 0 in
07:05 57 °F 55 °F 29.85 in ESE 1 mph 2 mph 93% 0 in
07:10 57 °F 55 °F 29.85 in Calm   3 mph 93% 0 in
07:15 56.9 °F 54.9 °F 29.85 in Calm   4 mph 93% 0 in
07:20 56.9 °F 54.9 °F 29.85 in Calm   1 mph 93% 0 in
07:25 56.9 °F 54.9 °F 29.85 in ESE 2 mph 7 mph 93% 0 in
07:29 56.9 °F 54.9 °F 29.85 in Calm   5 mph 93% 0 in
Woodinville, Washington USA
Compliments of Weather Underground - 4 mb